This is the latest recevied weather packets stored in our database for station/object N2UFM. If no packets are shown the sender has not sent any weather packets the latest 1 day(s).
| Time | Temp. | Humidity | Pressure | Rain* | Wind** | Luminosity | Snow |
|---|---|---|---|---|---|---|---|
| 1777989235 | 23.33° C | 55% | 1012.6 hPa | 0 mm | 0.89 m/s, 267° | - | - |
| 1777988935 | 22.78° C | 56% | 1012.6 hPa | 0 mm | 0.89 m/s, 256° | - | - |
| 1777988635 | 22.78° C | 57% | 1012.6 hPa | 0 mm | 0.89 m/s, 255° | - | - |
| 1777988334 | 22.78° C | 57% | 1012.6 hPa | 0 mm | 1.34 m/s, 221° | - | - |
| 1777988034 | 22.78° C | 58% | 1012.5 hPa | 0 mm | 1.34 m/s, 223° | - | - |
| 1777987734 | 22.22° C | 59% | 1012.5 hPa | 0 mm | 0.45 m/s, 260° | - | - |
| 1777987434 | 22.22° C | 59% | 1012.4 hPa | 0 mm | 0.45 m/s, 226° | - | - |
| 1777987134 | 21.67° C | 60% | 1012.3 hPa | 0 mm | 0.89 m/s, 216° | - | - |
| 1777986834 | 21.11° C | 61% | 1012.3 hPa | 0 mm | 0.89 m/s, 257° | - | - |
| 1777986533 | 21.11° C | 61% | 1012.4 hPa | 0 mm | 1.34 m/s, 215° | - | - |
| 1777986233 | 21.11° C | 62% | 1012.4 hPa | 0 mm | 0.89 m/s, 213° | - | - |
| 1777985933 | 21.11° C | 63% | 1012.4 hPa | 0 mm | 1.34 m/s, 224° | - | - |
| 1777985633 | 20.56° C | 63% | 1012.4 hPa | 0 mm | 0.89 m/s, 247° | - | - |
| 1777985333 | 20.56° C | 63% | 1012.3 hPa | 0 mm | 2.24 m/s, 219° | - | - |
| 1777985033 | 20.56° C | 63% | 1012.3 hPa | 0 mm | 1.34 m/s, 221° | - | - |
| 1777984733 | 20.56° C | 63% | 1012.3 hPa | 0 mm | 1.34 m/s, 223° | - | - |
| 1777984432 | 20.56° C | 63% | 1012.4 hPa | 0 mm | 0.89 m/s, 159° | - | - |
| 1777984132 | 20.56° C | 63% | 1012.2 hPa | 0 mm | 0.45 m/s, 214° | - | - |
| 1777983832 | 20.56° C | 62% | 1012.3 hPa | 0 mm | 1.34 m/s, 217° | - | - |
| 1777983532 | 20.56° C | 62% | 1012.3 hPa | 0 mm | 0.45 m/s, 214° | - | - |
| 1777983232 | 20.56° C | 62% | 1012.2 hPa | 0 mm | 1.34 m/s, 207° | - | - |
| 1777982932 | 20.56° C | 63% | 1012.2 hPa | 0 mm | 0 m/s | - | - |
| 1777982632 | 20° C | 63% | 1012.3 hPa | 0 mm | 0.45 m/s, 16° | - | - |
| 1777982331 | 20° C | 63% | 1012.1 hPa | 0 mm | 0.45 m/s, 304° | - | - |
| 1777982031 | 19.44° C | 65% | 1012.2 hPa | 0 mm | 0.45 m/s, 229° | - | - |
* Rain latest hour (hover to see other rain measurements)
** Current wind speed in m/s (hover to see current wind gust speed)